Delray Beach, FL (33448)

10:49 AM EDT on July 24, 2016 (GMT -0400)
SFWMD | | Change Station

Elev 10 ft 26.50 °N, 80.22 °W | Updated 34 minutes ago

Clear
Clear
84 °F
Feels Like 91 °F
N
2
Wind Variable Wind from West
Gusts 5.0 mph

Today
High -- | Low -- °F
--% Chance of Precip.
Yesterday
High -- | Low -- °F
Precip. -- in
Pressure 30.05 in
Visibility 10.0 miles
Clouds Clear
Heat Index 91 °F
Dew Point 75 °F
Humidity 72%
Rainfall in
Snow Depth Not available.
6:42 AM 8:12 PM
Waning Gibbous, 76% visible
METAR KPMP 241353Z 03004KT 10SM CLR 29/23 A3005 RMK AO2 LTG DSNT E-S SLP176 T02940233
Pressure 30.05 in
Visibility 10.0 miles
Clouds Clear
Heat Index 91 °F
Dew Point 75 °F
Humidity 72%
Rainfall in
Snow Depth Not available.
6:42 AM 8:12 PM
Waning Gibbous, 76% visible
METAR KPMP 241353Z 03004KT 10SM CLR 29/23 A3005 RMK AO2 LTG DSNT E-S SLP176 T02940233

10-Day Weather Forecast

Almanac

Astronomy

Jul. 24, 2016 Rise Set
Actual Time
Civil Twilight
Nautical Twilight
Astronomical Twilight
Moon
Length of Visible Light
Length of Day
Tomorrow will be .
, % of the Moon is Illuminated

Today's Extremes

State Highs State Lows

Community

WunderPhotos

Upload Photos

1,927,071 photos uploaded!

WunderBlog® & News

Nearby

Air Quality

  Air Quality AQ Index Pollutant
Not available.

Snow Depth

Station Depth Elevation

Earthquake Activity

City Distance Mag. Time & Date
Minimum magnitude displayed is 2.5.

Coastal Water Temperatures

Place Temperature

Stations

Nearby Weather Stations

Station Location Temp. Windchill Dew Point Humidity Wind Precip. Elev Updated Type
                   

Watches & Warnings

There are currently no watches in effect.